Time,TemperatureF,DewpointF,PressureIn,WindDirection,WindDirectionDegrees,WindSpeedMPH,WindSpeedGustMPH,Humidity,HourlyPrecipIn,Conditions,Clouds,dailyrainin,SoftwareType,DateUTC
2013-09-03 00:00:00,72.7,71.2,29.84,West,265,0.0,0.0,95,0.00,,CLR,0.00,VWS V14.01,2013-09-03 04:00:00,
2013-09-03 00:05:00,72.7,71.2,29.84,West,265,0.0,0.0,95,0.00,,CLR,0.00,VWS V14.01,2013-09-03 04:05:00,
2013-09-03 00:10:00,72.6,71.1,29.84,West,265,0.0,0.0,95,0.00,,CLR,0.00,VWS V14.01,2013-09-03 04:10:00,
2013-09-03 00:15:00,72.6,71.1,29.84,West,265,0.0,0.0,95,0.00,,CLR,0.00,VWS V14.01,2013-09-03 04:15:00,
2013-09-03 00:20:00,72.6,71.1,29.84,West,265,0.0,0.0,95,0.00,,CLR,0.00,VWS V14.01,2013-09-03 04:20:00,
2013-09-03 00:25:00,72.6,71.1,29.85,West,265,0.0,0.0,95,0.00,,CLR,0.00,VWS V14.01,2013-09-03 04:25:00,
2013-09-03 00:30:00,72.6,71.1,29.85,West,265,0.0,0.0,95,0.00,,CLR,0.00,VWS V14.01,2013-09-03 04:30:00,
2013-09-03 00:36:00,72.6,71.1,29.85,West,265,0.0,0.0,95,0.00,,CLR,0.00,VWS V14.01,2013-09-03 04:36:00,
2013-09-03 00:41:00,72.6,71.1,29.85,West,265,0.0,0.0,95,0.00,,CLR,0.00,VWS V14.01,2013-09-03 04:41:00,
2013-09-03 00:45:00,72.6,71.1,29.85,West,265,0.0,0.0,95,0.00,,,0.00,VWS V14.01,2013-09-03 04:45:00,
2013-09-03 00:46:00,72.6,71.1,29.85,West,265,0.0,0.0,95,0.00,,CLR,0.00,VWS V14.01,2013-09-03 04:46:00,
2013-09-03 00:51:00,72.6,71.1,29.84,West,265,0.0,0.0,95,0.00,,CLR,0.00,VWS V14.01,2013-09-03 04:51:00,
2013-09-03 00:56:00,72.6,71.1,29.85,South,183,0.0,2.0,95,0.00,,CLR,0.00,VWS V14.01,2013-09-03 04:56:00,
2013-09-03 01:00:00,72.6,71.1,29.84,South,175,1.0,2.0,95,0.00,,,0.00,VWS V14.01,2013-09-03 05:00:00,
2013-09-03 01:01:00,72.6,71.1,29.84,SSE,163,0.0,1.0,95,0.00,,CLR,0.00,VWS V14.01,2013-09-03 05:01:00,
2013-09-03 01:06:00,72.6,71.1,29.84,SSE,163,0.0,1.0,95,0.00,,CLR,0.00,VWS V14.01,2013-09-03 05:06:00,
2013-09-03 01:11:00,72.7,71.2,29.84,SSE,163,0.0,1.0,95,0.00,,CLR,0.00,VWS V14.01,2013-09-03 05:11:00,
2013-09-03 01:15:00,72.7,71.2,29.83,SSE,163,0.0,1.0,95,0.00,,,0.00,VWS V14.01,2013-09-03 05:15:00,
2013-09-03 01:16:00,72.6,71.1,29.83,SSE,163,0.0,0.0,95,0.00,,CLR,0.00,VWS V14.01,2013-09-03 05:16:00,
2013-09-03 01:21:00,72.6,71.1,29.83,SSE,163,0.0,0.0,95,0.00,,CLR,0.00,VWS V14.01,2013-09-03 05:21:00,
2013-09-03 01:26:00,72.6,71.1,29.83,SSE,163,0.0,0.0,95,0.00,,CLR,0.00,VWS V14.01,2013-09-03 05:26:00,
2013-09-03 01:30:00,72.6,71.1,29.83,SSE,163,0.0,0.0,95,0.00,,,0.00,VWS V14.01,2013-09-03 05:30:00,
2013-09-03 01:31:00,72.6,71.1,29.83,SSE,163,0.0,0.0,95,0.00,,CLR,0.00,VWS V14.01,2013-09-03 05:31:00,
2013-09-03 01:36:00,72.5,71.0,29.83,SSE,163,0.0,0.0,95,0.00,,CLR,0.00,VWS V14.01,2013-09-03 05:36:00,
2013-09-03 01:41:00,72.5,71.0,29.83,SSE,163,0.0,0.0,95,0.00,,CLR,0.00,VWS V14.01,2013-09-03 05:41:00,
2013-09-03 01:45:00,72.4,70.9,29.83,SSE,163,0.0,0.0,95,0.00,,,0.00,VWS V14.01,2013-09-03 05:45:00,
2013-09-03 01:46:00,72.4,70.9,29.83,SSE,163,0.0,0.0,95,0.00,,CLR,0.00,VWS V14.01,2013-09-03 05:46:00,
2013-09-03 01:51:00,72.3,70.8,29.83,SSE,163,0.0,0.0,95,0.00,,CLR,0.00,VWS V14.01,2013-09-03 05:51:00,
2013-09-03 01:56:00,72.3,70.8,29.83,SSE,163,0.0,0.0,95,0.00,,CLR,0.00,VWS V14.01,2013-09-03 05:56:00,
2013-09-03 02:00:00,72.3,70.8,29.83,SSE,163,0.0,0.0,95,0.00,,,0.00,VWS V14.01,2013-09-03 06:00:00,
2013-09-03 02:01:00,72.3,70.8,29.83,SSE,163,0.0,0.0,95,0.00,,CLR,0.00,VWS V14.01,2013-09-03 06:01:00,
2013-09-03 02:06:00,72.2,70.7,29.83,SSE,163,0.0,0.0,95,0.00,,CLR,0.00,VWS V14.01,2013-09-03 06:06:00,
2013-09-03 02:11:00,72.2,70.7,29.83,SSE,163,0.0,0.0,95,0.00,,CLR,0.00,VWS V14.01,2013-09-03 06:11:00,
2013-09-03 02:15:00,72.1,70.6,29.83,SSE,163,0.0,0.0,95,0.00,,,0.00,VWS V14.01,2013-09-03 06:15:00,
2013-09-03 02:16:00,72.1,70.6,29.83,SSE,163,0.0,0.0,95,0.00,,CLR,0.00,VWS V14.01,2013-09-03 06:16:00,
2013-09-03 02:21:00,72.0,70.5,29.82,SSE,163,0.0,0.0,95,0.00,,CLR,0.00,VWS V14.01,2013-09-03 06:21:00,
2013-09-03 02:26:00,71.9,70.4,29.82,SSE,163,0.0,0.0,95,0.00,,CLR,0.00,VWS V14.01,2013-09-03 06:26:00,
2013-09-03 02:30:00,71.9,70.4,29.81,SSE,163,0.0,0.0,95,0.00,,,0.00,VWS V14.01,2013-09-03 06:30:00,
2013-09-03 02:31:00,71.9,70.4,29.81,SSE,163,0.0,0.0,95,0.00,,CLR,0.00,VWS V14.01,2013-09-03 06:31:00,
2013-09-03 02:36:00,71.8,70.3,29.81,SSE,163,0.0,0.0,95,0.00,,CLR,0.00,VWS V14.01,2013-09-03 06:36:00,
2013-09-03 02:41:00,71.7,70.5,29.81,SSE,163,0.0,0.0,96,0.00,,CLR,0.00,VWS V14.01,2013-09-03 06:41:00,
2013-09-03 02:45:00,71.7,70.5,29.81,SSE,163,0.0,0.0,96,0.00,,,0.00,VWS V14.01,2013-09-03 06:45:00,
2013-09-03 02:46:00,71.7,70.5,29.81,SSE,163,0.0,0.0,96,0.00,,CLR,0.00,VWS V14.01,2013-09-03 06:46:00,
2013-09-03 02:51:00,71.6,70.4,29.81,SSE,163,0.0,0.0,96,0.00,,CLR,0.00,VWS V14.01,2013-09-03 06:51:00,
2013-09-03 02:56:00,71.5,70.0,29.81,SSE,163,0.0,0.0,95,0.00,,CLR,0.00,VWS V14.01,2013-09-03 06:56:00,
2013-09-03 03:00:00,71.4,70.2,29.81,SSE,163,0.0,0.0,96,0.00,,,0.00,VWS V14.01,2013-09-03 07:00:00,
2013-09-03 03:01:00,71.4,70.2,29.81,SSE,163,0.0,0.0,96,0.00,,CLR,0.00,VWS V14.01,2013-09-03 07:01:00,
2013-09-03 03:06:00,71.3,70.1,29.81,SSE,163,0.0,0.0,96,0.00,,CLR,0.00,VWS V14.01,2013-09-03 07:06:00,
2013-09-03 03:11:00,71.3,70.1,29.81,SSE,163,0.0,0.0,96,0.00,,CLR,0.00,VWS V14.01,2013-09-03 07:11:00,
2013-09-03 03:15:00,71.3,70.1,29.81,SSE,163,0.0,0.0,96,0.00,,,0.00,VWS V14.01,2013-09-03 07:15:00,
2013-09-03 03:17:00,71.3,70.1,29.81,SSE,163,0.0,0.0,96,0.00,,CLR,0.00,VWS V14.01,2013-09-03 07:17:00,
2013-09-03 03:22:00,71.3,70.1,29.81,SSE,163,0.0,0.0,96,0.00,,CLR,0.00,VWS V14.01,2013-09-03 07:22:00,
2013-09-03 03:27:00,71.3,70.1,29.81,SSE,163,0.0,0.0,96,0.00,,CLR,0.00,VWS V14.01,2013-09-03 07:27:00,
2013-09-03 03:30:00,71.2,70.0,29.81,SSE,163,0.0,0.0,96,0.00,,,0.00,VWS V14.01,2013-09-03 07:30:00,
2013-09-03 03:32:00,71.2,70.0,29.81,SSE,163,0.0,0.0,96,0.00,,CLR,0.00,VWS V14.01,2013-09-03 07:32:00,
2013-09-03 03:37:00,71.2,70.0,29.81,SSE,163,0.0,0.0,96,0.00,,CLR,0.00,VWS V14.01,2013-09-03 07:37:00,
2013-09-03 03:42:00,71.1,69.9,29.81,SSE,163,0.0,0.0,96,0.00,,CLR,0.00,VWS V14.01,2013-09-03 07:42:00,
2013-09-03 03:45:00,71.1,69.9,29.81,SSE,163,0.0,0.0,96,0.00,,,0.00,VWS V14.01,2013-09-03 07:45:00,
2013-09-03 03:47:00,71.1,69.9,29.81,SSE,163,0.0,0.0,96,0.00,,CLR,0.00,VWS V14.01,2013-09-03 07:47:00,
2013-09-03 03:52:00,71.0,69.8,29.81,SSE,163,0.0,0.0,96,0.00,,CLR,0.00,VWS V14.01,2013-09-03 07:52:00,
2013-09-03 03:57:00,71.0,69.8,29.81,SSE,163,0.0,0.0,96,0.00,,CLR,0.00,VWS V14.01,2013-09-03 07:57:00,
2013-09-03 04:00:00,70.9,69.7,29.81,SSE,163,0.0,0.0,96,0.00,,,0.00,VWS V14.01,2013-09-03 08:00:00,
2013-09-03 04:02:00,70.9,69.7,29.81,SSE,163,0.0,0.0,96,0.00,,SCT110,0.00,VWS V14.01,2013-09-03 08:02:00,
2013-09-03 04:07:00,70.8,69.6,29.81,SSE,163,0.0,0.0,96,0.00,,SCT110,0.00,VWS V14.01,2013-09-03 08:07:00,
2013-09-03 04:12:00,70.9,70.0,29.81,SSE,163,0.0,0.0,97,0.00,,SCT110,0.00,VWS V14.01,2013-09-03 08:12:00,
2013-09-03 04:15:00,71.0,70.1,29.81,SSE,163,0.0,0.0,97,0.00,,,0.00,VWS V14.01,2013-09-03 08:15:00,
2013-09-03 04:17:00,71.0,70.1,29.81,SSE,163,0.0,0.0,97,0.00,,SCT110,0.00,VWS V14.01,2013-09-03 08:17:00,
2013-09-03 04:22:00,71.0,70.1,29.81,SSE,163,0.0,0.0,97,0.00,,SCT110,0.00,VWS V14.01,2013-09-03 08:22:00,
2013-09-03 04:27:00,71.1,70.2,29.81,SSE,163,0.0,0.0,97,0.00,,SCT110,0.00,VWS V14.01,2013-09-03 08:27:00,
2013-09-03 04:30:00,71.1,70.2,29.81,SSE,163,0.0,0.0,97,0.00,,,0.00,VWS V14.01,2013-09-03 08:30:00,
2013-09-03 04:32:00,71.1,70.2,29.81,SSE,163,0.0,0.0,97,0.00,,SCT110,0.00,VWS V14.01,2013-09-03 08:32:00,
2013-09-03 04:37:00,71.2,70.3,29.81,SSE,163,0.0,0.0,97,0.00,,SCT110,0.00,VWS V14.01,2013-09-03 08:37:00,
2013-09-03 04:42:00,71.2,70.3,29.81,SSE,163,0.0,0.0,97,0.00,,SCT110,0.00,VWS V14.01,2013-09-03 08:42:00,
2013-09-03 04:45:00,71.3,70.4,29.82,SSE,163,0.0,0.0,97,0.00,,,0.00,VWS V14.01,2013-09-03 08:45:00,
2013-09-03 04:47:00,71.2,70.3,29.81,SSE,163,0.0,0.0,97,0.00,,SCT110,0.00,VWS V14.01,2013-09-03 08:47:00,
2013-09-03 04:52:00,71.3,70.4,29.82,SSE,163,0.0,0.0,97,0.00,,SCT110,0.00,VWS V14.01,2013-09-03 08:52:00,
2013-09-03 04:57:00,71.3,70.4,29.82,SSE,163,0.0,0.0,97,0.00,,SCT110,0.00,VWS V14.01,2013-09-03 08:57:00,
2013-09-03 05:00:00,71.3,70.4,29.82,SSE,163,0.0,0.0,97,0.00,,,0.00,VWS V14.01,2013-09-03 09:00:00,
2013-09-03 05:02:00,71.3,70.4,29.82,SSE,163,0.0,0.0,97,0.00,,BKN034,0.00,VWS V14.01,2013-09-03 09:02:00,
2013-09-03 05:07:00,71.3,70.4,29.82,SSE,163,0.0,0.0,97,0.00,,BKN034,0.00,VWS V14.01,2013-09-03 09:07:00,
2013-09-03 05:12:00,71.3,70.4,29.82,SSE,163,0.0,0.0,97,0.00,,BKN034,0.00,VWS V14.01,2013-09-03 09:12:00,
2013-09-03 05:15:00,71.3,70.4,29.82,SSE,163,0.0,0.0,97,0.00,,,0.00,VWS V14.01,2013-09-03 09:15:00,
2013-09-03 05:17:00,71.3,70.4,29.82,SSE,163,0.0,0.0,97,0.00,,BKN034,0.00,VWS V14.01,2013-09-03 09:17:00,
2013-09-03 05:22:00,71.3,70.4,29.82,SSE,163,0.0,0.0,97,0.00,,BKN034,0.00,VWS V14.01,2013-09-03 09:22:00,
2013-09-03 05:27:00,71.4,70.5,29.82,SSE,163,0.0,0.0,97,0.00,,BKN034,0.00,VWS V14.01,2013-09-03 09:27:00,
2013-09-03 05:30:00,71.4,70.5,29.82,SSE,163,0.0,0.0,97,0.00,,,0.00,VWS V14.01,2013-09-03 09:30:00,
2013-09-03 05:32:00,71.5,70.6,29.81,SSE,163,0.0,0.0,97,0.00,,BKN034,0.00,VWS V14.01,2013-09-03 09:32:00,
2013-09-03 05:37:00,71.5,70.6,29.82,SSE,163,0.0,0.0,97,0.00,,BKN034,0.00,VWS V14.01,2013-09-03 09:37:00,
2013-09-03 05:42:00,71.5,70.6,29.82,SSE,163,0.0,0.0,97,0.00,,BKN034,0.00,VWS V14.01,2013-09-03 09:42:00,
2013-09-03 05:45:00,71.5,70.6,29.82,SSE,163,0.0,0.0,97,0.00,,,0.00,VWS V14.01,2013-09-03 09:45:00,
2013-09-03 05:47:00,71.5,70.6,29.82,SSE,163,0.0,0.0,97,0.00,,BKN034,0.00,VWS V14.01,2013-09-03 09:47:00,
2013-09-03 05:52:00,71.5,70.6,29.82,SSE,163,0.0,0.0,97,0.00,,BKN034,0.00,VWS V14.01,2013-09-03 09:52:00,
2013-09-03 05:57:00,71.6,70.7,29.82,SSE,163,0.0,0.0,97,0.00,,BKN034,0.00,VWS V14.01,2013-09-03 09:57:00,
2013-09-03 06:00:00,71.6,70.7,29.82,SSE,163,0.0,0.0,97,0.00,,,0.00,VWS V14.01,2013-09-03 10:00:00,
2013-09-03 06:02:00,71.6,70.7,29.82,SSE,163,0.0,0.0,97,0.00,,FEW036,0.00,VWS V14.01,2013-09-03 10:02:00,
2013-09-03 06:07:00,71.7,70.8,29.82,SSE,163,0.0,0.0,97,0.00,,FEW036,0.00,VWS V14.01,2013-09-03 10:07:00,
2013-09-03 06:13:00,71.7,70.8,29.83,SSE,163,0.0,0.0,97,0.00,,FEW036,0.00,VWS V14.01,2013-09-03 10:13:00,
2013-09-03 06:15:00,71.7,70.8,29.83,SSE,163,0.0,0.0,97,0.00,,,0.00,VWS V14.01,2013-09-03 10:15:00,
2013-09-03 06:18:00,71.7,70.8,29.83,SSE,163,0.0,0.0,97,0.00,,FEW036,0.00,VWS V14.01,2013-09-03 10:18:00,
2013-09-03 06:23:00,71.7,70.8,29.83,SSE,163,0.0,0.0,97,0.00,,FEW036,0.00,VWS V14.01,2013-09-03 10:23:00,
2013-09-03 06:28:00,71.6,70.7,29.83,SSE,163,0.0,0.0,97,0.00,,FEW036,0.00,VWS V14.01,2013-09-03 10:28:00,
2013-09-03 06:30:00,71.7,70.8,29.83,SSE,163,0.0,0.0,97,0.00,,,0.00,VWS V14.01,2013-09-03 10:30:00,
2013-09-03 06:33:00,71.7,70.8,29.83,SSE,163,0.0,0.0,97,0.00,,FEW036,0.00,VWS V14.01,2013-09-03 10:33:00,
2013-09-03 06:38:00,71.6,70.7,29.83,SSE,163,0.0,0.0,97,0.00,,FEW036,0.00,VWS V14.01,2013-09-03 10:38:00,
2013-09-03 06:43:00,71.6,70.7,29.84,SSE,163,0.0,0.0,97,0.00,,FEW036,0.00,VWS V14.01,2013-09-03 10:43:00,
2013-09-03 06:45:00,71.6,70.7,29.84,SSE,163,0.0,0.0,97,0.00,,,0.00,VWS V14.01,2013-09-03 10:45:00,
2013-09-03 06:48:00,71.6,70.7,29.84,SSE,163,0.0,0.0,97,0.00,,FEW036,0.00,VWS V14.01,2013-09-03 10:48:00,
2013-09-03 06:53:00,71.5,70.6,29.84,SSE,163,0.0,0.0,97,0.00,,FEW036,0.00,VWS V14.01,2013-09-03 10:53:00,
2013-09-03 06:58:00,71.5,70.6,29.84,SSE,163,0.0,0.0,97,0.00,,FEW036,0.00,VWS V14.01,2013-09-03 10:58:00,
2013-09-03 07:00:00,71.5,70.6,29.84,SSE,163,0.0,0.0,97,0.00,,,0.00,VWS V14.01,2013-09-03 11:00:00,
2013-09-03 07:03:00,71.5,70.6,29.84,SSE,163,0.0,0.0,97,0.00,,,0.00,VWS V14.01,2013-09-03 11:03:00,
2013-09-03 07:08:00,71.3,70.4,29.84,SSE,163,0.0,0.0,97,0.00,,,0.00,VWS V14.01,2013-09-03 11:08:00,
2013-09-03 07:13:00,71.3,70.4,29.84,SSE,163,0.0,0.0,97,0.00,,,0.00,VWS V14.01,2013-09-03 11:13:00,
2013-09-03 07:15:00,71.3,70.4,29.84,SSE,163,0.0,0.0,97,0.00,,,0.00,VWS V14.01,2013-09-03 11:15:00,
2013-09-03 07:18:00,71.3,70.4,29.84,SSE,163,0.0,0.0,97,0.00,,,0.00,VWS V14.01,2013-09-03 11:18:00,
2013-09-03 07:23:00,71.3,70.4,29.84,SSE,163,0.0,0.0,97,0.00,,,0.00,VWS V14.01,2013-09-03 11:23:00,
2013-09-03 07:28:00,71.3,70.4,29.84,SSE,163,0.0,0.0,97,0.00,,,0.00,VWS V14.01,2013-09-03 11:28:00,
2013-09-03 07:30:00,71.4,70.5,29.85,SSE,163,0.0,0.0,97,0.00,,,0.00,VWS V14.01,2013-09-03 11:30:00,
2013-09-03 07:33:00,71.4,70.5,29.85,SSE,163,0.0,0.0,97,0.00,,,0.00,VWS V14.01,2013-09-03 11:33:00,
2013-09-03 07:38:00,71.5,70.6,29.85,SSE,163,0.0,0.0,97,0.00,,,0.00,VWS V14.01,2013-09-03 11:38:00,
2013-09-03 07:43:00,71.5,70.6,29.85,SSE,163,0.0,0.0,97,0.00,,,0.00,VWS V14.01,2013-09-03 11:43:00,
2013-09-03 07:45:00,71.6,70.7,29.85,SSE,163,0.0,0.0,97,0.00,,,0.00,VWS V14.01,2013-09-03 11:45:00,
2013-09-03 07:48:00,71.7,70.8,29.85,SSE,163,0.0,0.0,97,0.00,,,0.00,VWS V14.01,2013-09-03 11:48:00,
2013-09-03 07:53:00,71.8,71.2,29.85,SSE,163,0.0,0.0,98,0.00,,,0.00,VWS V14.01,2013-09-03 11:53:00,
2013-09-03 07:58:00,71.9,71.3,29.85,SSE,163,0.0,0.0,98,0.00,,,0.00,VWS V14.01,2013-09-03 11:58:00,
2013-09-03 08:00:00,72.0,71.4,29.85,SSE,163,0.0,0.0,98,0.00,,,0.00,VWS V14.01,2013-09-03 12:00:00,
2013-09-03 08:03:00,72.1,71.5,29.85,SSE,163,0.0,0.0,98,0.00,,,0.00,VWS V14.01,2013-09-03 12:03:00,
2013-09-03 08:08:00,72.3,71.7,29.85,SE,144,0.0,0.0,98,0.00,,,0.00,VWS V14.01,2013-09-03 12:08:00,
2013-09-03 08:13:00,72.5,71.9,29.86,SE,144,0.0,0.0,98,0.00,,,0.00,VWS V14.01,2013-09-03 12:13:00,
2013-09-03 08:15:00,72.6,72.0,29.86,SE,144,0.0,0.0,98,0.00,,,0.00,VWS V14.01,2013-09-03 12:15:00,
2013-09-03 08:18:00,72.8,72.2,29.86,SE,144,0.0,0.0,98,0.00,,,0.00,VWS V14.01,2013-09-03 12:18:00,
2013-09-03 08:23:00,72.9,72.3,29.86,SE,144,0.0,0.0,98,0.00,,,0.00,VWS V14.01,2013-09-03 12:23:00,
2013-09-03 08:28:00,73.1,72.5,29.86,SE,144,0.0,0.0,98,0.00,,,0.00,VWS V14.01,2013-09-03 12:28:00,
2013-09-03 08:30:00,73.1,72.5,29.86,SE,144,0.0,0.0,98,0.00,,,0.00,VWS V14.01,2013-09-03 12:30:00,
2013-09-03 08:33:00,73.3,72.7,29.86,SE,144,0.0,0.0,98,0.00,,,0.00,VWS V14.01,2013-09-03 12:33:00,
2013-09-03 08:38:00,73.4,72.5,29.86,SE,144,0.0,0.0,97,0.00,,,0.00,VWS V14.01,2013-09-03 12:38:00,
2013-09-03 08:43:00,73.5,72.6,29.86,SSW,196,0.0,2.0,97,0.00,,,0.00,VWS V14.01,2013-09-03 12:43:00,
2013-09-03 08:45:00,73.5,72.6,29.86,SSW,196,0.0,2.0,97,0.00,,,0.00,VWS V14.01,2013-09-03 12:45:00,
2013-09-03 08:48:00,73.6,72.7,29.86,SSW,213,0.0,2.0,97,0.00,,,0.00,VWS V14.01,2013-09-03 12:48:00,
2013-09-03 08:53:00,73.9,73.0,29.86,SSE,162,0.0,2.0,97,0.00,,,0.00,VWS V14.01,2013-09-03 12:53:00,
2013-09-03 08:58:00,74.1,73.2,29.86,West,277,0.0,2.0,97,0.00,,,0.00,VWS V14.01,2013-09-03 12:58:00,
2013-09-03 09:00:00,74.2,73.3,29.87,West,277,0.0,2.0,97,0.00,,,0.00,VWS V14.01,2013-09-03 13:00:00,
2013-09-03 09:03:00,74.4,73.5,29.87,West,277,0.0,0.0,97,0.00,,CLR,0.00,VWS V14.01,2013-09-03 13:03:00,
2013-09-03 09:08:00,74.6,73.4,29.87,SSW,202,0.0,5.0,96,0.00,,CLR,0.00,VWS V14.01,2013-09-03 13:08:00,
2013-09-03 09:13:00,75.0,73.8,29.86,SSW,200,0.0,5.0,96,0.00,,CLR,0.00,VWS V14.01,2013-09-03 13:13:00,
2013-09-03 09:15:00,75.1,73.9,29.87,ESE,117,0.0,5.0,96,0.00,,,0.00,VWS V14.01,2013-09-03 13:15:00,
2013-09-03 09:19:00,75.2,74.0,29.86,West,259,0.0,2.0,96,0.00,,CLR,0.00,VWS V14.01,2013-09-03 13:19:00,
2013-09-03 09:24:00,75.6,74.1,29.86,West,259,0.0,2.0,95,0.00,,CLR,0.00,VWS V14.01,2013-09-03 13:24:00,
2013-09-03 09:29:00,75.9,74.4,29.86,West,259,0.0,2.0,95,0.00,,CLR,0.00,VWS V14.01,2013-09-03 13:29:00,
2013-09-03 09:30:00,76.0,74.5,29.86,West,259,0.0,2.0,95,0.00,,,0.00,VWS V14.01,2013-09-03 13:30:00,
2013-09-03 09:34:00,76.2,74.7,29.86,WSW,256,0.0,0.0,95,0.00,,CLR,0.00,VWS V14.01,2013-09-03 13:34:00,
2013-09-03 09:39:00,76.6,74.8,29.87,WSW,256,0.0,0.0,94,0.00,,CLR,0.00,VWS V14.01,2013-09-03 13:39:00,
2013-09-03 09:44:00,76.7,74.5,29.87,WSW,255,0.0,0.0,93,0.00,,CLR,0.00,VWS V14.01,2013-09-03 13:44:00,
2013-09-03 09:45:00,76.8,74.6,29.87,SSE,165,2.0,2.0,93,0.00,,,0.00,VWS V14.01,2013-09-03 13:45:00,
2013-09-03 09:49:00,76.9,74.7,29.87,South,186,0.0,2.0,93,0.00,,CLR,0.00,VWS V14.01,2013-09-03 13:49:00,
2013-09-03 09:54:00,77.0,74.5,29.87,SSW,199,0.0,2.0,92,0.00,,CLR,0.00,VWS V14.01,2013-09-03 13:54:00,
2013-09-03 09:59:00,77.4,74.9,29.87,SSE,156,0.0,2.0,92,0.00,,CLR,0.00,VWS V14.01,2013-09-03 13:59:00,
2013-09-03 10:00:00,77.4,74.9,29.87,South,179,0.0,5.0,92,0.00,,,0.00,VWS V14.01,2013-09-03 14:00:00,
2013-09-03 10:04:00,77.6,74.8,29.87,South,188,1.0,2.0,91,0.00,,CLR,0.00,VWS V14.01,2013-09-03 14:04:00,
2013-09-03 10:09:00,77.9,75.1,29.87,SSE,158,0.0,4.0,91,0.00,,CLR,0.00,VWS V14.01,2013-09-03 14:09:00,
2013-09-03 10:14:00,78.2,75.4,29.87,South,187,1.0,6.0,91,0.00,,CLR,0.00,VWS V14.01,2013-09-03 14:14:00,
2013-09-03 10:15:00,78.3,75.1,29.87,SSE,156,1.0,6.0,90,0.00,,,0.00,VWS V14.01,2013-09-03 14:15:00,
2013-09-03 10:24:00,78.8,75.6,29.87,West,271,0.0,2.0,90,0.00,,CLR,0.00,VWS V14.01,2013-09-03 14:24:00,
2013-09-03 10:29:00,79.5,76.3,29.87,ENE,74,0.0,7.0,90,0.00,,CLR,0.00,VWS V14.01,2013-09-03 14:29:00,
2013-09-03 10:30:00,79.7,76.2,29.87,South,175,0.0,7.0,89,0.00,,,0.00,VWS V14.01,2013-09-03 14:30:00,
2013-09-03 10:34:00,80.3,76.4,29.87,SW,217,0.0,2.0,88,0.00,,CLR,0.00,VWS V14.01,2013-09-03 14:34:00,
2013-09-03 10:39:00,80.9,76.7,29.86,SSW,200,0.0,2.0,87,0.00,,CLR,0.00,VWS V14.01,2013-09-03 14:39:00,
2013-09-03 10:44:00,81.6,77.0,29.86,ESE,116,0.0,2.0,86,0.00,,CLR,0.00,VWS V14.01,2013-09-03 14:44:00,
2013-09-03 10:45:00,81.8,77.2,29.86,ESE,123,0.0,5.0,86,0.00,,,0.00,VWS V14.01,2013-09-03 14:45:00,
2013-09-03 10:49:00,82.1,77.2,29.86,SE,142,0.0,5.0,85,0.00,,CLR,0.00,VWS V14.01,2013-09-03 14:49:00,
2013-09-03 10:54:00,82.9,77.9,29.86,SSE,160,0.0,5.0,85,0.00,,CLR,0.00,VWS V14.01,2013-09-03 14:54:00,
2013-09-03 10:59:00,83.6,78.3,29.85,SSW,210,0.0,5.0,84,0.00,,CLR,0.00,VWS V14.01,2013-09-03 14:59:00,
2013-09-03 11:00:00,83.6,77.9,29.85,SSW,210,0.0,5.0,83,0.00,,,0.00,VWS V14.01,2013-09-03 15:00:00,
2013-09-03 11:04:00,83.9,77.8,29.85,SSW,202,0.0,0.0,82,0.00,,CLR,0.00,VWS V14.01,2013-09-03 15:04:00,
2013-09-03 11:09:00,84.2,77.7,29.85,SSW,202,0.0,0.0,81,0.00,,CLR,0.00,VWS V14.01,2013-09-03 15:09:00,
2013-09-03 11:14:00,84.2,77.7,29.85,SSW,195,0.0,2.0,81,0.00,,CLR,0.00,VWS V14.01,2013-09-03 15:14:00,
2013-09-03 11:15:00,84.2,77.4,29.85,SSW,195,1.0,2.0,80,0.00,,,0.00,VWS V14.01,2013-09-03 15:15:00,
2013-09-03 11:19:00,84.2,77.4,29.85,SE,144,0.0,2.0,80,0.00,,CLR,0.00,VWS V14.01,2013-09-03 15:19:00,
2013-09-03 11:24:00,84.0,77.2,29.85,SW,219,0.0,5.0,80,0.00,,CLR,0.00,VWS V14.01,2013-09-03 15:24:00,
2013-09-03 11:29:00,83.8,77.7,29.85,SW,220,0.0,5.0,82,0.00,,CLR,0.00,VWS V14.01,2013-09-03 15:29:00,
2013-09-03 11:30:00,83.8,77.7,29.85,SW,219,0.0,5.0,82,0.00,,,0.00,VWS V14.01,2013-09-03 15:30:00,
2013-09-03 11:34:00,83.6,77.5,29.85,SW,219,0.0,0.0,82,0.00,,CLR,0.00,VWS V14.01,2013-09-03 15:34:00,
2013-09-03 11:39:00,83.7,78.0,29.85,SW,220,0.0,0.0,83,0.00,,CLR,0.00,VWS V14.01,2013-09-03 15:39:00,
2013-09-03 11:44:00,83.9,78.6,29.84,SW,220,0.0,0.0,84,0.00,,CLR,0.00,VWS V14.01,2013-09-03 15:44:00,
2013-09-03 11:45:00,83.9,78.2,29.84,SW,220,0.0,0.0,83,0.00,,,0.00,VWS V14.01,2013-09-03 15:45:00,
2013-09-03 11:49:00,84.1,78.0,29.84,WSW,256,0.0,1.0,82,0.00,,CLR,0.00,VWS V14.01,2013-09-03 15:49:00,
2013-09-03 11:55:00,84.4,78.7,29.84,WSW,256,0.0,1.0,83,0.00,,CLR,0.00,VWS V14.01,2013-09-03 15:55:00,
2013-09-03 12:00:00,84.6,77.8,29.84,WSW,256,0.0,1.0,80,0.00,,CLR,0.00,VWS V14.01,2013-09-03 16:00:00,
2013-09-03 12:05:00,84.8,78.3,29.84,WSW,256,0.0,0.0,81,0.00,,CLR,0.00,VWS V14.01,2013-09-03 16:05:00,
2013-09-03 12:10:00,85.0,78.1,29.84,WSW,252,0.0,4.0,80,0.00,,CLR,0.00,VWS V14.01,2013-09-03 16:10:00,
2013-09-03 12:15:00,85.3,78.8,29.84,WSW,246,0.0,4.0,81,0.00,,CLR,0.00,VWS V14.01,2013-09-03 16:15:00,
2013-09-03 12:20:00,85.5,78.6,29.83,WSW,247,0.0,0.0,80,0.00,,CLR,0.00,VWS V14.01,2013-09-03 16:20:00,
2013-09-03 12:25:00,85.8,78.9,29.83,WSW,247,0.0,0.0,80,0.00,,CLR,0.00,VWS V14.01,2013-09-03 16:25:00,
2013-09-03 12:30:00,86.1,78.1,29.84,WSW,247,0.0,0.0,77,0.00,,CLR,0.00,VWS V14.01,2013-09-03 16:30:00,
2013-09-03 12:35:00,86.2,78.5,29.83,WSW,246,0.0,0.0,78,0.00,,CLR,0.00,VWS V14.01,2013-09-03 16:35:00,
2013-09-03 12:40:00,86.3,78.2,29.83,WSW,246,0.0,1.0,77,0.00,,CLR,0.00,VWS V14.01,2013-09-03 16:40:00,
2013-09-03 12:45:00,86.4,78.3,29.84,WSW,246,0.0,1.0,77,0.00,,CLR,0.00,VWS V14.01,2013-09-03 16:45:00,
2013-09-03 12:50:00,86.3,78.6,29.83,WSW,246,0.0,0.0,78,0.00,,CLR,0.00,VWS V14.01,2013-09-03 16:50:00,
2013-09-03 12:55:00,86.3,78.6,29.83,WSW,246,0.0,1.0,78,0.00,,CLR,0.00,VWS V14.01,2013-09-03 16:55:00,
2013-09-03 13:00:00,86.5,78.8,29.84,WSW,246,0.0,2.0,78,0.00,,CLR,0.00,VWS V14.01,2013-09-03 17:00:00,
2013-09-03 13:05:00,86.5,78.4,29.84,West,263,0.0,3.0,77,0.00,,CLR,0.00,VWS V14.01,2013-09-03 17:05:00,
2013-09-03 13:10:00,87.0,79.3,29.84,WSW,256,0.0,3.0,78,0.00,,CLR,0.00,VWS V14.01,2013-09-03 17:10:00,
2013-09-03 13:15:00,87.4,79.3,29.83,SE,139,0.0,3.0,77,0.00,,CLR,0.00,VWS V14.01,2013-09-03 17:15:00,
2013-09-03 13:20:00,87.7,78.4,29.83,ESE,119,0.0,1.0,74,0.00,,CLR,0.00,VWS V14.01,2013-09-03 17:20:00,
2013-09-03 13:25:00,87.9,79.0,29.83,East,96,0.0,1.0,75,0.00,,CLR,0.00,VWS V14.01,2013-09-03 17:25:00,
2013-09-03 13:30:00,88.1,79.6,29.83,ESE,111,0.0,1.0,76,0.00,,CLR,0.00,VWS V14.01,2013-09-03 17:30:00,
2013-09-03 13:35:00,88.7,79.8,29.83,ESE,111,0.0,1.0,75,0.00,,CLR,0.00,VWS V14.01,2013-09-03 17:35:00,
2013-09-03 13:40:00,89.3,79.1,29.83,East,94,0.0,2.0,72,0.00,,CLR,0.00,VWS V14.01,2013-09-03 17:40:00,
2013-09-03 13:45:00,89.7,79.9,29.83,NNE,33,0.0,2.0,73,0.00,,CLR,0.00,VWS V14.01,2013-09-03 17:45:00,
2013-09-03 13:50:00,89.9,78.8,29.83,ESE,119,0.0,2.0,70,0.00,,CLR,0.00,VWS V14.01,2013-09-03 17:50:00,
2013-09-03 13:55:00,90.1,79.0,29.83,SSE,153,2.0,5.0,70,0.00,,CLR,0.00,VWS V14.01,2013-09-03 17:55:00,
2013-09-03 14:00:00,90.0,78.9,29.83,SE,142,0.0,5.0,70,0.00,,CLR,0.00,VWS V14.01,2013-09-03 18:00:00,
2013-09-03 14:05:00,90.0,78.5,29.82,NE,42,0.0,6.0,69,0.00,,CLR,0.00,VWS V14.01,2013-09-03 18:05:00,
2013-09-03 14:10:00,90.3,79.2,29.82,NE,51,0.0,6.0,70,0.00,,CLR,0.00,VWS V14.01,2013-09-03 18:10:00,
2013-09-03 14:15:00,90.9,79.3,29.82,ESE,109,0.0,6.0,69,0.00,,CLR,0.00,VWS V14.01,2013-09-03 18:15:00,
2013-09-03 14:20:00,91.3,79.3,29.82,SW,225,0.0,4.0,68,0.00,,CLR,0.00,VWS V14.01,2013-09-03 18:20:00,
2013-09-03 14:25:00,91.6,78.2,29.82,NNE,33,0.0,4.0,65,0.00,,CLR,0.00,VWS V14.01,2013-09-03 18:25:00,
2013-09-03 14:30:00,91.7,78.3,29.82,NNW,344,0.0,0.0,65,0.00,,CLR,0.00,VWS V14.01,2013-09-03 18:30:00,
2013-09-03 14:35:00,91.5,78.1,29.82,SSW,211,0.0,6.0,65,0.00,,CLR,0.00,VWS V14.01,2013-09-03 18:35:00,
2013-09-03 14:40:00,91.5,78.1,29.81,SSW,209,0.0,6.0,65,0.00,,CLR,0.00,VWS V14.01,2013-09-03 18:40:00,
2013-09-03 14:45:00,91.5,78.1,29.81,NNW,346,1.0,1.0,65,0.00,,CLR,0.00,VWS V14.01,2013-09-03 18:45:00,
2013-09-03 14:50:00,91.7,78.3,29.81,SE,126,0.0,4.0,65,0.00,,CLR,0.00,VWS V14.01,2013-09-03 18:50:00,
2013-09-03 14:56:00,91.9,78.0,29.81,NNW,335,1.0,4.0,64,0.00,,CLR,0.00,VWS V14.01,2013-09-03 18:56:00,
2013-09-03 15:00:00,92.2,77.8,29.81,South,190,0.0,5.0,63,0.00,,,0.00,VWS V14.01,2013-09-03 19:00:00,
2013-09-03 15:01:00,92.2,77.3,29.81,South,190,0.0,1.0,62,0.00,,CLR,0.00,VWS V14.01,2013-09-03 19:01:00,
2013-09-03 15:06:00,92.2,77.8,29.81,SSE,163,1.0,4.0,63,0.00,,CLR,0.00,VWS V14.01,2013-09-03 19:06:00,
2013-09-03 15:11:00,91.9,78.0,29.80,SE,127,0.0,7.0,64,0.00,,CLR,0.00,VWS V14.01,2013-09-03 19:11:00,
2013-09-03 15:15:00,91.7,77.3,29.79,SSW,192,0.0,7.0,63,0.00,,,0.00,VWS V14.01,2013-09-03 19:15:00,
2013-09-03 15:16:00,91.6,77.2,29.80,SSW,192,0.0,0.0,63,0.00,,CLR,0.00,VWS V14.01,2013-09-03 19:16:00,
2013-09-03 15:21:00,91.7,77.3,29.80,SSW,206,2.0,2.0,63,0.00,,CLR,0.00,VWS V14.01,2013-09-03 19:21:00,
2013-09-03 15:26:00,91.5,77.1,29.80,SSW,198,1.0,4.0,63,0.00,,CLR,0.00,VWS V14.01,2013-09-03 19:26:00,
2013-09-03 15:30:00,90.6,76.3,29.80,SSW,205,0.0,4.0,63,0.00,,,0.00,VWS V14.01,2013-09-03 19:30:00,
2013-09-03 15:31:00,90.5,76.2,29.80,SSW,205,0.0,0.0,63,0.00,,CLR,0.00,VWS V14.01,2013-09-03 19:31:00,
2013-09-03 15:36:00,89.5,76.2,29.79,SSW,206,0.0,1.0,65,0.00,,CLR,0.00,VWS V14.01,2013-09-03 19:36:00,
2013-09-03 15:41:00,88.4,76.9,29.80,SW,232,3.0,5.0,69,0.00,,CLR,0.00,VWS V14.01,2013-09-03 19:41:00,
2013-09-03 15:45:00,87.1,75.7,29.81,SSW,193,0.0,5.0,69,0.00,,,0.00,VWS V14.01,2013-09-03 19:45:00,
2013-09-03 15:46:00,87.1,75.7,29.81,SSW,196,2.0,2.0,69,0.00,,CLR,0.00,VWS V14.01,2013-09-03 19:46:00,
2013-09-03 15:51:00,85.9,74.6,29.81,North,9,0.0,5.0,69,0.00,,CLR,0.00,VWS V14.01,2013-09-03 19:51:00,
2013-09-03 15:56:00,85.0,74.6,29.81,SSW,192,0.0,5.0,71,0.00,,CLR,0.00,VWS V14.01,2013-09-03 19:56:00,
2013-09-03 16:00:00,84.4,73.6,29.80,SW,217,0.0,5.0,70,0.00,,,0.00,VWS V14.01,2013-09-03 20:00:00,
2013-09-03 16:01:00,84.3,73.5,29.80,SSW,211,0.0,0.0,70,0.00,,FEW049,0.00,VWS V14.01,2013-09-03 20:01:00,
2013-09-03 16:06:00,83.6,74.0,29.81,NW,323,0.0,5.0,73,0.00,,FEW049,0.00,VWS V14.01,2013-09-03 20:06:00,
2013-09-03 16:11:00,82.9,74.2,29.81,SE,129,0.0,5.0,75,0.00,,FEW049,0.00,VWS V14.01,2013-09-03 20:11:00,
2013-09-03 16:15:00,82.3,74.8,29.81,SE,129,0.0,5.0,78,0.01,,,0.01,VWS V14.01,2013-09-03 20:15:00,
2013-09-03 16:16:00,82.2,75.0,29.81,SE,129,0.0,0.0,79,0.01,,FEW049,0.01,VWS V14.01,2013-09-03 20:16:00,
2013-09-03 16:21:00,81.3,75.7,29.81,SE,129,0.0,1.0,83,0.01,,FEW049,0.01,VWS V14.01,2013-09-03 20:21:00,
2013-09-03 16:26:00,80.0,75.4,29.81,SE,129,0.0,3.0,86,0.01,,FEW049,0.01,VWS V14.01,2013-09-03 20:26:00,
2013-09-03 16:30:00,79.4,75.5,29.81,SW,222,0.0,3.0,88,0.01,,,0.01,VWS V14.01,2013-09-03 20:30:00,
2013-09-03 16:31:00,79.4,75.5,29.81,SW,222,2.0,2.0,88,0.01,,FEW049,0.01,VWS V14.01,2013-09-03 20:31:00,
2013-09-03 16:36:00,78.7,74.8,29.81,SW,230,0.0,2.0,88,0.01,,FEW049,0.01,VWS V14.01,2013-09-03 20:36:00,
2013-09-03 16:41:00,78.5,75.3,29.81,SW,230,0.0,2.0,90,0.01,,FEW049,0.01,VWS V14.01,2013-09-03 20:41:00,
2013-09-03 16:45:00,78.3,75.1,29.81,SW,230,0.0,2.0,90,0.01,,,0.01,VWS V14.01,2013-09-03 20:45:00,
2013-09-03 16:46:00,78.3,75.1,29.81,SW,230,0.0,0.0,90,0.01,,FEW049,0.01,VWS V14.01,2013-09-03 20:46:00,
2013-09-03 16:51:00,78.3,75.5,29.81,SW,230,0.0,0.0,91,0.01,,FEW049,0.01,VWS V14.01,2013-09-03 20:51:00,
2013-09-03 16:56:00,78.3,75.5,29.80,SW,230,0.0,0.0,91,0.01,,FEW049,0.01,VWS V14.01,2013-09-03 20:56:00,
2013-09-03 17:00:00,78.3,75.5,29.80,SW,230,0.0,0.0,91,0.01,,,0.01,VWS V14.01,2013-09-03 21:00:00,
2013-09-03 17:01:00,78.3,75.5,29.80,SW,230,0.0,0.0,91,0.01,,FEW046,0.01,VWS V14.01,2013-09-03 21:01:00,
2013-09-03 17:06:00,78.2,75.4,29.80,SW,230,0.0,0.0,91,0.01,,FEW046,0.01,VWS V14.01,2013-09-03 21:06:00,
2013-09-03 17:11:00,78.2,75.4,29.80,SW,230,0.0,0.0,91,0.01,,FEW046,0.01,VWS V14.01,2013-09-03 21:11:00,
2013-09-03 17:15:00,78.2,75.0,29.80,SW,230,0.0,0.0,90,0.01,,,0.01,VWS V14.01,2013-09-03 21:15:00,
2013-09-03 17:17:00,78.2,75.0,29.80,SW,230,0.0,0.0,90,0.00,,FEW046,0.01,VWS V14.01,2013-09-03 21:17:00,
2013-09-03 17:22:00,78.4,75.2,29.80,SW,230,0.0,0.0,90,0.00,,FEW046,0.01,VWS V14.01,2013-09-03 21:22:00,
2013-09-03 17:27:00,78.5,75.0,29.80,SW,230,0.0,0.0,89,0.00,,FEW046,0.01,VWS V14.01,2013-09-03 21:27:00,
2013-09-03 17:30:00,78.6,75.1,29.80,SW,230,0.0,0.0,89,0.00,,,0.01,VWS V14.01,2013-09-03 21:30:00,
2013-09-03 17:42:00,78.6,75.1,29.81,SW,230,0.0,0.0,89,0.00,,FEW046,0.01,VWS V14.01,2013-09-03 21:42:00,
2013-09-03 17:45:00,78.5,75.0,29.81,SSW,199,0.0,2.0,89,0.00,,,0.01,VWS V14.01,2013-09-03 21:45:00,
2013-09-03 17:47:00,78.4,74.9,29.81,SSW,199,0.0,0.0,89,0.00,,FEW046,0.01,VWS V14.01,2013-09-03 21:47:00,
2013-09-03 17:52:00,78.3,75.1,29.81,SSW,199,0.0,0.0,90,0.00,,FEW046,0.01,VWS V14.01,2013-09-03 21:52:00,
2013-09-03 17:57:00,78.2,75.4,29.81,SSW,199,0.0,0.0,91,0.00,,FEW046,0.01,VWS V14.01,2013-09-03 21:57:00,
2013-09-03 18:00:00,78.0,75.2,29.81,SSW,199,0.0,0.0,91,0.00,,,0.01,VWS V14.01,2013-09-03 22:00:00,
2013-09-03 18:02:00,78.0,75.2,29.81,NNW,339,0.0,0.0,91,0.00,,CLR,0.01,VWS V14.01,2013-09-03 22:02:00,
2013-09-03 18:07:00,77.9,75.1,29.81,NNW,339,0.0,0.0,91,0.00,,CLR,0.01,VWS V14.01,2013-09-03 22:07:00,
2013-09-03 18:12:00,77.8,75.0,29.81,NNW,339,0.0,0.0,91,0.00,,CLR,0.01,VWS V14.01,2013-09-03 22:12:00,
2013-09-03 18:15:00,77.7,75.2,29.81,NNW,339,0.0,0.0,92,0.00,,,0.01,VWS V14.01,2013-09-03 22:15:00,
2013-09-03 18:17:00,77.7,75.2,29.81,NNW,339,0.0,0.0,92,0.00,,CLR,0.01,VWS V14.01,2013-09-03 22:17:00,
2013-09-03 18:22:00,77.7,75.2,29.81,NNW,338,0.0,0.0,92,0.00,,CLR,0.01,VWS V14.01,2013-09-03 22:22:00,
2013-09-03 18:27:00,77.7,75.2,29.80,NNW,339,0.0,0.0,92,0.00,,CLR,0.01,VWS V14.01,2013-09-03 22:27:00,
2013-09-03 18:30:00,77.7,75.2,29.80,NNW,339,0.0,0.0,92,0.00,,,0.01,VWS V14.01,2013-09-03 22:30:00,
2013-09-03 18:32:00,77.7,75.2,29.80,NNW,338,0.0,0.0,92,0.00,,CLR,0.01,VWS V14.01,2013-09-03 22:32:00,
2013-09-03 18:37:00,77.8,75.6,29.80,NNW,339,0.0,0.0,93,0.00,,CLR,0.01,VWS V14.01,2013-09-03 22:37:00,
2013-09-03 18:43:00,77.9,75.7,29.81,NNW,338,0.0,0.0,93,0.00,,CLR,0.01,VWS V14.01,2013-09-03 22:43:00,
2013-09-03 18:45:00,78.0,75.8,29.81,NNW,339,0.0,0.0,93,0.00,,,0.01,VWS V14.01,2013-09-03 22:45:00,
2013-09-03 18:48:00,78.2,76.0,29.81,NNW,339,0.0,0.0,93,0.00,,CLR,0.01,VWS V14.01,2013-09-03 22:48:00,
2013-09-03 18:53:00,78.5,76.3,29.81,NNW,339,0.0,0.0,93,0.00,,CLR,0.01,VWS V14.01,2013-09-03 22:53:00,
2013-09-03 18:58:00,78.7,75.9,29.81,NNW,338,0.0,0.0,91,0.00,,CLR,0.01,VWS V14.01,2013-09-03 22:58:00,
2013-09-03 19:00:00,78.7,75.5,29.81,NNW,339,0.0,0.0,90,0.00,,,0.01,VWS V14.01,2013-09-03 23:00:00,
2013-09-03 19:03:00,78.7,75.5,29.81,NNW,336,0.0,0.0,90,0.00,,CLR,0.01,VWS V14.01,2013-09-03 23:03:00,
2013-09-03 19:08:00,78.7,75.2,29.81,ENE,71,0.0,2.0,89,0.00,,CLR,0.01,VWS V14.01,2013-09-03 23:08:00,
2013-09-03 19:13:00,78.6,75.1,29.82,ENE,71,0.0,2.0,89,0.00,,CLR,0.01,VWS V14.01,2013-09-03 23:13:00,
2013-09-03 19:15:00,78.6,75.1,29.82,ENE,71,0.0,2.0,89,0.00,,,0.01,VWS V14.01,2013-09-03 23:15:00,
2013-09-03 19:18:00,78.5,75.0,29.82,ENE,71,0.0,0.0,89,0.00,,CLR,0.01,VWS V14.01,2013-09-03 23:18:00,
2013-09-03 19:23:00,78.4,75.2,29.82,ENE,71,0.0,0.0,90,0.00,,CLR,0.01,VWS V14.01,2013-09-03 23:23:00,
2013-09-03 19:28:00,78.3,75.1,29.82,ENE,71,0.0,0.0,90,0.00,,CLR,0.01,VWS V14.01,2013-09-03 23:28:00,
2013-09-03 19:30:00,78.3,75.1,29.83,ENE,71,0.0,0.0,90,0.00,,,0.01,VWS V14.01,2013-09-03 23:30:00,
2013-09-03 19:33:00,78.3,75.1,29.83,ENE,71,0.0,0.0,90,0.00,,CLR,0.01,VWS V14.01,2013-09-03 23:33:00,
2013-09-03 19:38:00,78.1,75.3,29.84,ENE,71,0.0,0.0,91,0.00,,CLR,0.01,VWS V14.01,2013-09-03 23:38:00,
2013-09-03 19:43:00,78.0,75.2,29.84,ENE,71,0.0,0.0,91,0.00,,CLR,0.01,VWS V14.01,2013-09-03 23:43:00,
2013-09-03 19:45:00,78.0,75.2,29.84,ENE,71,0.0,0.0,91,0.00,,,0.01,VWS V14.01,2013-09-03 23:45:00,
2013-09-03 19:48:00,77.9,75.1,29.84,ENE,71,0.0,0.0,91,0.00,,CLR,0.01,VWS V14.01,2013-09-03 23:48:00,
2013-09-03 19:53:00,77.7,74.9,29.84,ENE,71,0.0,0.0,91,0.00,,CLR,0.01,VWS V14.01,2013-09-03 23:53:00,
2013-09-03 20:00:00,77.3,74.8,29.84,ENE,71,0.0,0.0,92,0.00,,CLR,0.01,VWS V14.01,2013-09-04 00:00:00,
2013-09-03 20:08:00,76.9,74.4,29.84,ENE,71,0.0,0.0,92,0.00,,CLR,0.01,VWS V14.01,2013-09-04 00:08:00,
2013-09-03 20:13:00,76.8,74.3,29.84,ENE,71,0.0,0.0,92,0.00,,CLR,0.01,VWS V14.01,2013-09-04 00:13:00,
2013-09-03 20:15:00,76.7,74.5,29.84,ENE,71,0.0,0.0,93,0.00,,,0.01,VWS V14.01,2013-09-04 00:15:00,
2013-09-03 20:18:00,76.6,74.4,29.84,ENE,71,0.0,0.0,93,0.00,,CLR,0.01,VWS V14.01,2013-09-04 00:18:00,
2013-09-03 20:23:00,76.4,74.2,29.84,ENE,71,0.0,0.0,93,0.00,,CLR,0.01,VWS V14.01,2013-09-04 00:23:00,
2013-09-03 20:28:00,76.3,74.1,29.85,ENE,71,0.0,0.0,93,0.00,,CLR,0.01,VWS V14.01,2013-09-04 00:28:00,
2013-09-03 20:30:00,76.2,74.0,29.85,ENE,71,0.0,0.0,93,0.00,,,0.01,VWS V14.01,2013-09-04 00:30:00,
2013-09-03 20:33:00,76.1,74.2,29.85,ENE,71,0.0,0.0,94,0.00,,CLR,0.01,VWS V14.01,2013-09-04 00:33:00,
2013-09-03 20:38:00,76.0,74.2,29.85,ENE,71,0.0,0.0,94,0.00,,CLR,0.01,VWS V14.01,2013-09-04 00:38:00,
2013-09-03 20:44:00,75.9,74.1,29.86,ENE,71,0.0,0.0,94,0.00,,CLR,0.01,VWS V14.01,2013-09-04 00:44:00,
2013-09-03 20:45:00,75.9,74.1,29.86,ENE,71,0.0,0.0,94,0.00,,,0.01,VWS V14.01,2013-09-04 00:45:00,
2013-09-03 20:49:00,75.8,73.9,29.86,ENE,71,0.0,0.0,94,0.00,,CLR,0.01,VWS V14.01,2013-09-04 00:49:00,
2013-09-03 20:54:00,75.7,73.8,29.86,ENE,71,0.0,0.0,94,0.00,,CLR,0.01,VWS V14.01,2013-09-04 00:54:00,
2013-09-03 20:59:00,75.6,73.8,29.87,ENE,71,0.0,0.0,94,0.00,,CLR,0.01,VWS V14.01,2013-09-04 00:59:00,
2013-09-03 21:00:00,75.5,73.7,29.87,ENE,71,0.0,0.0,94,0.00,,,0.01,VWS V14.01,2013-09-04 01:00:00,
2013-09-03 21:04:00,75.5,74.0,29.87,ENE,71,0.0,0.0,95,0.00,,CLR,0.01,VWS V14.01,2013-09-04 01:04:00,
2013-09-03 21:09:00,75.4,73.9,29.87,ENE,71,0.0,0.0,95,0.00,,CLR,0.01,VWS V14.01,2013-09-04 01:09:00,
2013-09-03 21:14:00,75.3,73.8,29.88,ENE,71,0.0,0.0,95,0.00,,CLR,0.01,VWS V14.01,2013-09-04 01:14:00,
2013-09-03 21:15:00,75.3,73.8,29.88,ENE,71,0.0,0.0,95,0.00,,,0.01,VWS V14.01,2013-09-04 01:15:00,
2013-09-03 21:19:00,75.2,73.7,29.88,ENE,71,0.0,0.0,95,0.00,,CLR,0.01,VWS V14.01,2013-09-04 01:19:00,
2013-09-03 21:24:00,75.1,73.6,29.88,ENE,71,0.0,0.0,95,0.00,,CLR,0.01,VWS V14.01,2013-09-04 01:24:00,
2013-09-03 21:29:00,75.1,73.9,29.88,ENE,71,0.0,0.0,96,0.00,,CLR,0.01,VWS V14.01,2013-09-04 01:29:00,
2013-09-03 21:30:00,75.1,73.9,29.88,ENE,71,0.0,0.0,96,0.00,,,0.01,VWS V14.01,2013-09-04 01:30:00,
2013-09-03 21:34:00,75.1,73.9,29.88,ENE,71,0.0,0.0,96,0.00,,CLR,0.01,VWS V14.01,2013-09-04 01:34:00,
2013-09-03 21:39:00,75.0,73.8,29.89,ENE,71,0.0,0.0,96,0.00,,CLR,0.01,VWS V14.01,2013-09-04 01:39:00,
2013-09-03 21:44:00,75.0,73.8,29.89,ENE,71,0.0,0.0,96,0.00,,CLR,0.01,VWS V14.01,2013-09-04 01:44:00,
2013-09-03 21:45:00,74.9,73.7,29.89,ENE,71,0.0,0.0,96,0.00,,,0.01,VWS V14.01,2013-09-04 01:45:00,
2013-09-03 21:49:00,74.8,73.3,29.90,ENE,71,0.0,0.0,95,0.00,,CLR,0.01,VWS V14.01,2013-09-04 01:49:00,
2013-09-03 21:54:00,74.7,73.2,29.89,ENE,71,0.0,0.0,95,0.00,,CLR,0.01,VWS V14.01,2013-09-04 01:54:00,
2013-09-03 21:59:00,74.5,73.3,29.89,ENE,71,0.0,0.0,96,0.00,,CLR,0.01,VWS V14.01,2013-09-04 01:59:00,
2013-09-03 22:00:00,74.5,73.3,29.89,ENE,71,0.0,0.0,96,0.00,,,0.01,VWS V14.01,2013-09-04 02:00:00,
2013-09-03 22:04:00,74.4,73.2,29.89,ENE,71,0.0,0.0,96,0.00,,CLR,0.01,VWS V14.01,2013-09-04 02:04:00,
2013-09-03 22:09:00,74.3,73.1,29.89,ENE,71,0.0,0.0,96,0.00,,CLR,0.01,VWS V14.01,2013-09-04 02:09:00,
2013-09-03 22:14:00,74.1,72.9,29.89,ENE,71,0.0,0.0,96,0.00,,CLR,0.01,VWS V14.01,2013-09-04 02:14:00,
2013-09-03 22:15:00,74.1,72.9,29.90,ENE,71,0.0,0.0,96,0.00,,,0.01,VWS V14.01,2013-09-04 02:15:00,
2013-09-03 22:19:00,74.1,72.9,29.90,ENE,71,0.0,0.0,96,0.00,,CLR,0.01,VWS V14.01,2013-09-04 02:19:00,
2013-09-03 22:24:00,74.0,72.8,29.90,ENE,71,0.0,0.0,96,0.00,,CLR,0.01,VWS V14.01,2013-09-04 02:24:00,
2013-09-03 22:29:00,73.9,72.7,29.90,ENE,71,0.0,0.0,96,0.00,,CLR,0.01,VWS V14.01,2013-09-04 02:29:00,
2013-09-03 22:30:00,73.9,72.7,29.90,ENE,71,0.0,0.0,96,0.00,,,0.01,VWS V14.01,2013-09-04 02:30:00,
2013-09-03 22:34:00,73.9,72.7,29.90,ENE,71,0.0,0.0,96,0.00,,CLR,0.01,VWS V14.01,2013-09-04 02:34:00,
2013-09-03 22:39:00,73.8,72.6,29.90,ENE,71,0.0,0.0,96,0.00,,CLR,0.01,VWS V14.01,2013-09-04 02:39:00,
2013-09-03 22:44:00,73.7,72.5,29.90,ENE,71,0.0,0.0,96,0.00,,CLR,0.01,VWS V14.01,2013-09-04 02:44:00,
2013-09-03 22:45:00,73.7,72.5,29.90,ENE,71,0.0,0.0,96,0.00,,,0.01,VWS V14.01,2013-09-04 02:45:00,
2013-09-03 22:49:00,73.7,72.5,29.90,ENE,71,0.0,0.0,96,0.00,,CLR,0.01,VWS V14.01,2013-09-04 02:49:00,
2013-09-03 22:54:00,73.7,72.5,29.90,ENE,71,0.0,0.0,96,0.00,,CLR,0.01,VWS V14.01,2013-09-04 02:54:00,
2013-09-03 22:59:00,73.5,72.3,29.90,ENE,71,0.0,0.0,96,0.00,,CLR,0.01,VWS V14.01,2013-09-04 02:59:00,
2013-09-03 23:00:00,73.5,72.3,29.90,ENE,71,0.0,0.0,96,0.00,,,0.01,VWS V14.01,2013-09-04 03:00:00,
2013-09-03 23:04:00,73.4,72.2,29.90,ENE,71,0.0,0.0,96,0.00,,CLR,0.01,VWS V14.01,2013-09-04 03:04:00,
2013-09-03 23:09:00,73.4,72.2,29.91,ENE,71,0.0,0.0,96,0.00,,CLR,0.01,VWS V14.01,2013-09-04 03:09:00,
2013-09-03 23:14:00,73.3,72.1,29.90,ENE,71,0.0,0.0,96,0.00,,CLR,0.01,VWS V14.01,2013-09-04 03:14:00,
2013-09-03 23:15:00,73.3,72.1,29.91,ENE,71,0.0,0.0,96,0.00,,,0.01,VWS V14.01,2013-09-04 03:15:00,
2013-09-03 23:20:00,73.2,72.0,29.91,ENE,71,0.0,0.0,96,0.00,,CLR,0.01,VWS V14.01,2013-09-04 03:20:00,
2013-09-03 23:25:00,73.2,72.0,29.91,ENE,71,0.0,0.0,96,0.00,,CLR,0.01,VWS V14.01,2013-09-04 03:25:00,
2013-09-03 23:30:00,73.2,72.3,29.91,ENE,71,0.0,0.0,97,0.00,,CLR,0.01,VWS V14.01,2013-09-04 03:30:00,
2013-09-03 23:35:00,73.3,72.4,29.91,SE,128,0.0,1.0,97,0.00,,CLR,0.01,VWS V14.01,2013-09-04 03:35:00,
2013-09-03 23:40:00,73.3,72.4,29.91,SE,128,0.0,1.0,97,0.00,,CLR,0.01,VWS V14.01,2013-09-04 03:40:00,
2013-09-03 23:45:00,73.3,72.4,29.91,SE,128,0.0,1.0,97,0.00,,CLR,0.01,VWS V14.01,2013-09-04 03:45:00,
2013-09-03 23:50:00,73.1,72.2,29.90,SE,128,0.0,0.0,97,0.00,,CLR,0.01,VWS V14.01,2013-09-04 03:50:00,
2013-09-03 23:55:00,73.0,72.1,29.90,SE,128,0.0,0.0,97,0.00,,CLR,0.01,VWS V14.01,2013-09-04 03:55:00,